Time;durP1;ratioP1;P1;durP2;ratioP2;P2;SDS_P1;SDS_P2;PMS_P1;PMS_P2;Temp;Humidity;BMP_temperature;BMP_pressure;BME280_temperature;BME280_humidity;BME280_pressure;Samples;Min_cycle;Max_cycle;Signal;HPM_P1;HPM_P2
2021/08/12 00:01:42;;;;;;;11.43;8.35;;;;;;;20.83;65.67;95284.69;5108679;28;20043;-70
2021/08/12 00:04:10;;;;;;;13.10;9.27;;;;;;;20.84;66.48;95286.28;5109657;27;20043;-70
2021/08/12 00:06:37;;;;;;;12.02;9.25;;;;;;;20.63;67.30;95302.41;5107800;27;20538;-70
2021/08/12 00:09:04;;;;;;;14.02;9.27;;;;;;;20.27;68.74;95310.69;5108789;28;20115;-70
2021/08/12 00:11:30;;;;;;;13.32;10.18;;;;;;;20.13;69.33;95307.13;5108319;28;20497;-70
2021/08/12 00:13:57;;;;;;;15.70;9.40;;;;;;;20.02;70.30;95309.09;5109549;27;20077;-70
2021/08/12 00:16:24;;;;;;;12.95;8.75;;;;;;;20.16;69.11;95304.72;5108681;27;20088;-70
2021/08/12 00:18:55;;;;;;;11.27;8.68;;;;;;;20.25;68.72;95303.03;5107853;27;20051;-70
2021/08/12 00:21:25;;;;;;;11.70;8.45;;;;;;;20.32;68.63;95305.38;5106855;28;20131;-70
2021/08/12 00:23:53;;;;;;;13.35;9.38;;;;;;;20.39;68.35;95313.75;5108013;27;20048;-69
2021/08/12 00:26:20;;;;;;;12.43;9.90;;;;;;;20.44;68.09;95316.34;5107898;28;20513;-70
2021/08/12 00:28:47;;;;;;;10.73;8.52;;;;;;;20.44;67.89;95315.56;5108022;28;20048;-70
2021/08/12 00:31:14;;;;;;;14.98;9.63;;;;;;;20.45;67.73;95317.13;5107539;28;20035;-69
2021/08/12 00:33:41;;;;;;;11.93;8.30;;;;;;;20.46;67.49;95312.66;5088369;28;20055;-70
2021/08/12 00:36:08;;;;;;;12.70;9.32;;;;;;;20.37;67.64;95310.59;5088972;28;20071;-70
2021/08/12 00:38:35;;;;;;;10.95;9.50;;;;;;;20.37;67.83;95315.91;5088491;28;20051;-70
2021/08/12 00:41:02;;;;;;;11.00;8.30;;;;;;;20.38;67.67;95322.78;5089262;28;20055;-70
2021/08/12 00:43:30;;;;;;;11.13;9.00;;;;;;;20.38;67.25;95316.69;5089218;28;20047;-70
2021/08/12 00:45:57;;;;;;;13.20;10.00;;;;;;;20.31;67.70;95317.03;5090511;28;20032;-70
2021/08/12 00:48:24;;;;;;;10.68;9.35;;;;;;;20.26;67.40;95314.44;5089312;28;20039;-70
2021/08/12 00:50:51;;;;;;;15.30;9.43;;;;;;;20.21;67.50;95306.53;5090299;28;20047;-70
2021/08/12 00:53:20;;;;;;;13.00;9.52;;;;;;;20.22;67.80;95308.09;5107458;27;20048;-70
2021/08/12 00:55:47;;;;;;;15.30;10.50;;;;;;;20.19;68.13;95298.09;5105730;27;20050;-70
2021/08/12 00:58:17;;;;;;;13.32;8.95;;;;;;;20.24;68.00;95311.28;5087335;28;20402;-69
2021/08/12 01:00:48;;;;;;;25.55;11.25;;;;;;;20.29;67.93;95311.19;5088252;28;20051;-70
2021/08/12 01:03:19;;;;;;;16.50;9.07;;;;;;;20.34;68.36;95305.88;5105969;28;20066;-71
2021/08/12 01:05:55;;;;;;;21.25;9.85;;;;;;;20.39;68.52;95307.69;5087479;28;20058;-70
2021/08/12 01:09:00;;;;;;;14.63;9.38;;;;;;;20.42;69.19;95299.97;5089342;28;20039;-70
2021/08/12 01:11:43;;;;;;;16.05;8.00;;;;;;;20.47;68.83;95303.63;5087521;28;20051;-70
2021/08/12 01:14:45;;;;;;;25.25;9.27;;;;;;;20.49;68.88;95306.78;5088936;28;20056;-70
2021/08/12 01:17:21;;;;;;;26.35;10.55;;;;;;;20.44;69.11;95300.47;5075934;28;20073;-69
2021/08/12 01:19:49;;;;;;;15.20;9.43;;;;;;;20.42;69.46;95302.63;5087899;28;20089;-70
2021/08/12 01:22:19;;;;;;;15.52;10.45;;;;;;;20.42;70.54;95301.84;5106819;28;20044;-69
2021/08/12 01:24:52;;;;;;;14.70;9.85;;;;;;;20.41;71.38;95298.38;5089633;27;20051;-70
2021/08/12 01:27:25;;;;;;;14.23;10.13;;;;;;;20.37;72.04;95297.38;5087696;28;20089;-70
2021/08/12 01:30:03;;;;;;;12.50;10.27;;;;;;;20.26;74.25;95301.22;5088697;28;20062;-70
2021/08/12 01:32:35;;;;;;;12.05;9.98;;;;;;;20.23;74.94;95289.31;5089271;27;20040;-70
2021/08/12 01:35:09;;;;;;;14.73;10.50;;;;;;;20.22;75.90;95286.94;5087892;28;20505;-70
2021/08/12 01:37:44;;;;;;;12.85;10.68;;;;;;;20.24;76.56;95290.13;5106017;28;20518;-70
2021/08/12 01:40:14;;;;;;;13.30;10.52;;;;;;;20.21;77.50;95285.38;5087072;28;20077;-70
2021/08/12 01:42:44;;;;;;;18.17;11.18;;;;;;;20.24;77.28;95282.19;5071681;28;20478;-70
2021/08/12 01:45:16;;;;;;;16.60;10.98;;;;;;;20.28;77.22;95290.34;5107720;27;20470;-70
2021/08/12 01:47:44;;;;;;;16.00;10.60;;;;;;;20.30;76.75;95289.00;5087953;28;20123;-70
2021/08/12 01:50:15;;;;;;;14.50;11.40;;;;;;;20.31;76.92;95285.28;5088244;28;20056;-70
2021/08/12 01:52:46;;;;;;;13.43;11.48;;;;;;;20.31;76.98;95280.00;5086478;28;20043;-69
2021/08/12 01:55:22;;;;;;;11.70;10.00;;;;;;;20.33;76.67;95284.97;5088096;28;20120;-70
2021/08/12 01:57:49;;;;;;;13.23;10.32;;;;;;;20.35;76.47;95267.78;5087121;28;20048;-69
2021/08/12 02:00:17;;;;;;;18.60;12.10;;;;;;;20.30;76.75;95277.63;5087748;28;20051;-69
2021/08/12 02:02:47;;;;;;;12.00;10.57;;;;;;;20.21;77.30;95272.16;5106083;28;20043;-69
2021/08/12 02:05:17;;;;;;;11.23;10.02;;;;;;;20.10;77.84;95270.69;5086805;28;20051;-69
2021/08/12 02:07:46;;;;;;;15.57;11.27;;;;;;;20.13;77.64;95272.75;5086538;28;20074;-70
2021/08/12 02:10:15;;;;;;;12.68;11.43;;;;;;;20.08;77.76;95270.97;5086859;28;20052;-70
2021/08/12 02:12:42;;;;;;;12.77;10.02;;;;;;;20.10;77.02;95268.06;5086337;28;20036;-70
2021/08/12 02:15:11;;;;;;;13.60;10.07;;;;;;;20.12;76.28;95261.41;5106140;28;20043;-70
2021/08/12 02:17:38;;;;;;;11.63;9.57;;;;;;;20.11;75.80;95264.34;5105870;28;20100;-69
2021/08/12 02:20:17;;;;;;;12.00;10.70;;;;;;;20.15;75.47;95265.34;5087883;28;20075;-70
2021/08/12 02:23:04;;;;;;;14.82;11.02;;;;;;;20.16;75.82;95273.00;5087730;28;20055;-69
2021/08/12 02:25:42;;;;;;;13.63;10.85;;;;;;;20.12;75.54;95271.22;5087914;28;20088;-70
2021/08/12 02:28:10;;;;;;;12.18;10.10;;;;;;;20.10;76.18;95283.94;5105106;28;20515;-69
2021/08/12 02:30:40;;;;;;;11.60;10.40;;;;;;;20.06;76.89;95288.97;5106556;28;20040;-70
2021/08/12 02:33:12;;;;;;;12.07;10.82;;;;;;;19.98;78.00;95298.28;5088633;28;20044;-70
2021/08/12 02:35:40;;;;;;;16.85;11.55;;;;;;;19.90;79.20;95296.25;5087316;28;20104;-70
2021/08/12 02:38:11;;;;;;;17.13;11.50;;;;;;;19.88;79.37;95298.41;5105657;28;20039;-69
2021/08/12 02:40:44;;;;;;;18.00;13.30;;;;;;;19.80;80.50;95299.00;5087032;28;20075;-70
2021/08/12 02:43:12;;;;;;;25.60;18.45;;;;;;;19.76;80.99;95300.63;5088759;28;20108;-70
2021/08/12 02:45:42;;;;;;;23.20;15.77;;;;;;;19.66;81.50;95302.25;5088675;28;20413;-70
2021/08/12 02:48:11;;;;;;;21.85;13.32;;;;;;;19.55;81.86;95306.00;5085843;28;20123;-70
2021/08/12 02:50:42;;;;;;;17.23;13.75;;;;;;;19.47;82.61;95309.25;5086833;28;20048;-70
2021/08/12 02:53:10;;;;;;;18.13;14.00;;;;;;;19.43;82.93;95302.97;5105173;28;20043;-70
2021/08/12 02:55:38;;;;;;;23.23;17.17;;;;;;;19.40;83.05;95298.22;5087010;28;20043;-70
2021/08/12 02:58:07;;;;;;;29.42;24.33;;;;;;;19.41;83.13;95305.88;5104459;28;20393;-70
2021/08/12 03:00:34;;;;;;;23.17;16.48;;;;;;;19.42;82.94;95301.38;5105570;28;20518;-69
2021/08/12 03:03:03;;;;;;;38.13;25.55;;;;;;;19.38;83.17;95300.34;5105478;28;20046;-70
2021/08/12 03:05:32;;;;;;;32.20;24.27;;;;;;;19.32;83.22;95290.88;5086760;28;20039;-70
2021/08/12 03:08:02;;;;;;;22.23;15.00;;;;;;;19.07;83.42;95284.69;5084116;28;20040;-70
2021/08/12 03:10:30;;;;;;;20.23;13.80;;;;;;;19.13;83.44;95296.81;5087147;28;20054;-70
2021/08/12 03:13:00;;;;;;;18.48;14.70;;;;;;;19.11;83.62;95312.13;5086915;28;20048;-69
2021/08/12 03:15:28;;;;;;;23.70;14.13;;;;;;;19.07;83.91;95311.88;5087657;28;20058;-69
2021/08/12 03:17:56;;;;;;;16.00;13.50;;;;;;;19.01;83.66;95304.25;5088490;27;20573;-69
2021/08/12 03:20:28;;;;;;;24.25;13.40;;;;;;;18.94;83.68;95301.13;5092214;28;20036;-69
2021/08/12 03:22:57;;;;;;;25.25;13.35;;;;;;;19.03;83.35;95315.31;5091253;28;20112;-70
2021/08/12 03:25:25;;;;;;;19.70;12.57;;;;;;;19.02;83.30;95313.75;5090796;28;20063;-69
2021/08/12 03:27:52;;;;;;;26.15;13.00;;;;;;;19.04;83.04;95322.19;5109393;28;20040;-70
2021/08/12 03:30:19;;;;;;;26.85;13.77;;;;;;;19.05;83.01;95315.84;5092376;27;20044;-69
2021/08/12 03:32:46;;;;;;;24.40;12.70;;;;;;;19.05;82.89;95318.47;5110233;27;20044;-69
2021/08/12 03:35:14;;;;;;;27.30;13.68;;;;;;;18.83;82.55;95306.44;5090862;28;20039;-69
2021/08/12 03:37:41;;;;;;;25.17;14.70;;;;;;;18.86;82.20;95321.75;5090672;28;20044;-69
2021/08/12 03:40:09;;;;;;;20.60;13.55;;;;;;;18.72;82.33;95313.59;5107465;27;20043;-69
2021/08/12 03:42:37;;;;;;;26.30;14.38;;;;;;;18.79;82.23;95325.72;5089639;28;20040;-70
2021/08/12 03:45:05;;;;;;;19.92;13.20;;;;;;;18.67;82.03;95328.66;5090842;28;20057;-70
2021/08/12 03:47:32;;;;;;;15.27;12.82;;;;;;;18.60;81.88;95328.16;5092118;28;20122;-69
2021/08/12 03:49:59;;;;;;;17.80;12.07;;;;;;;18.61;81.67;95324.47;5090543;28;20035;-70
2021/08/12 03:52:27;;;;;;;16.73;12.82;;;;;;;18.61;81.17;95321.81;5090667;28;20051;-70
2021/08/12 03:54:54;;;;;;;18.83;13.18;;;;;;;18.62;80.56;95326.03;5091765;28;20069;-70
2021/08/12 03:57:20;;;;;;;23.40;14.30;;;;;;;18.65;80.52;95328.91;5108696;27;20055;-69
2021/08/12 03:59:47;;;;;;;19.05;13.18;;;;;;;18.64;80.51;95331.84;5090576;28;20074;-70
2021/08/12 04:02:14;;;;;;;21.83;13.73;;;;;;;18.70;80.62;95338.66;5090443;28;20123;-69
2021/08/12 04:04:41;;;;;;;22.35;14.13;;;;;;;18.73;80.78;95340.78;5090063;28;20047;-70
2021/08/12 04:07:09;;;;;;;26.90;16.67;;;;;;;18.76;80.36;95348.13;5106474;28;20508;-69
2021/08/12 04:09:36;;;;;;;26.92;16.33;;;;;;;18.78;80.36;95340.75;5089361;28;20524;-69
2021/08/12 04:12:03;;;;;;;30.65;16.90;;;;;;;18.83;79.89;95353.16;5108494;28;20074;-69
2021/08/12 04:14:30;;;;;;;26.00;16.13;;;;;;;18.86;79.56;95337.56;5091278;28;20568;-69
2021/08/12 04:16:57;;;;;;;29.70;16.58;;;;;;;18.94;79.38;95344.13;5108512;27;20063;-69
2021/08/12 04:19:25;;;;;;;25.25;14.77;;;;;;;19.02;78.88;95350.72;5089812;28;20036;-70
2021/08/12 04:21:52;;;;;;;25.27;14.30;;;;;;;18.98;78.32;95339.09;5106585;27;20040;-69
2021/08/12 04:24:19;;;;;;;20.20;14.93;;;;;;;19.13;77.89;95357.53;5106408;27;20062;-69
2021/08/12 04:26:46;;;;;;;26.17;14.10;;;;;;;19.22;77.51;95350.59;5088312;28;20051;-69
2021/08/12 04:29:13;;;;;;;27.70;14.48;;;;;;;19.27;77.14;95353.22;5106923;27;20043;-69
2021/08/12 04:31:40;;;;;;;21.83;14.07;;;;;;;19.25;77.25;95346.66;5090489;28;20043;-69
2021/08/12 04:34:07;;;;;;;21.25;13.75;;;;;;;19.34;76.89;95352.13;5088835;28;20100;-70
2021/08/12 04:36:33;;;;;;;18.55;11.98;;;;;;;19.36;77.08;95355.31;5088558;28;20145;-69
2021/08/12 04:39:00;;;;;;;20.25;12.43;;;;;;;19.33;77.58;95355.84;5089358;28;20035;-69
2021/08/12 04:41:27;;;;;;;19.15;11.35;;;;;;;19.36;77.20;95366.66;5107734;28;20047;-69
2021/08/12 04:43:54;;;;;;;13.80;10.68;;;;;;;19.41;77.44;95368.44;5110731;27;20116;-69
2021/08/12 04:46:24;;;;;;;14.43;11.02;;;;;;;19.44;77.40;95367.91;5088948;28;20039;-69
2021/08/12 04:48:52;;;;;;;12.57;10.23;;;;;;;19.49;77.30;95366.03;5091093;28;20766;-69
2021/08/12 04:51:19;;;;;;;13.20;10.18;;;;;;;19.51;76.98;95368.41;5105875;28;20097;-69
2021/08/12 04:53:49;;;;;;;16.30;10.82;;;;;;;19.53;77.44;95371.53;5088100;28;20096;-69
2021/08/12 04:56:16;;;;;;;19.73;10.43;;;;;;;19.56;77.38;95365.72;5090127;27;20066;-69
2021/08/12 04:58:43;;;;;;;12.55;9.98;;;;;;;19.56;76.83;95376.28;5107833;28;20044;-69
2021/08/12 05:01:10;;;;;;;10.73;9.63;;;;;;;19.63;75.93;95374.13;5091171;27;20039;-69
2021/08/12 05:03:37;;;;;;;13.32;9.80;;;;;;;19.68;76.17;95368.81;5087916;28;20036;-69
2021/08/12 05:06:09;;;;;;;14.13;10.10;;;;;;;19.70;75.79;95371.19;5105409;28;20490;-69
2021/08/12 05:08:36;;;;;;;11.27;9.98;;;;;;;19.78;76.26;95375.13;5087412;28;20570;-70
2021/08/12 05:11:08;;;;;;;13.60;9.60;;;;;;;19.84;75.88;95379.28;5102157;27;20057;-70
2021/08/12 05:13:35;;;;;;;12.88;10.38;;;;;;;19.85;76.05;95380.88;5113361;27;20046;-69
2021/08/12 05:16:02;;;;;;;13.52;10.52;;;;;;;19.82;75.92;95384.06;5113798;27;20493;-68
2021/08/12 05:18:29;;;;;;;14.38;10.48;;;;;;;19.91;75.45;95387.69;5093927;27;20040;-68
2021/08/12 05:20:56;;;;;;;12.75;10.05;;;;;;;20.00;74.72;95386.03;5092950;27;20541;-69
2021/08/12 05:23:22;;;;;;;14.55;10.23;;;;;;;20.00;74.37;95385.25;5092072;28;20093;-68
2021/08/12 05:25:49;;;;;;;11.95;9.93;;;;;;;20.01;74.09;95392.13;5110963;27;20047;-68
2021/08/12 05:28:16;;;;;;;14.00;9.50;;;;;;;20.04;73.94;95395.00;5098420;27;20108;-68
2021/08/12 05:30:43;;;;;;;17.77;9.80;;;;;;;20.08;74.83;95391.78;5109350;27;20044;-69
2021/08/12 05:33:10;;;;;;;13.18;9.93;;;;;;;20.14;74.65;95391.47;5114542;27;20504;-68
2021/08/12 05:35:37;;;;;;;13.95;9.70;;;;;;;20.16;74.75;95391.22;5093227;28;20046;-69
2021/08/12 05:38:04;;;;;;;21.85;9.95;;;;;;;20.27;73.67;95395.34;5107088;27;20501;-68
2021/08/12 05:40:31;;;;;;;23.60;9.52;;;;;;;20.34;74.15;95401.09;5088229;28;20049;-72
2021/08/12 05:42:58;;;;;;;25.17;10.73;;;;;;;20.48;73.97;95405.75;5092844;28;20063;-71
2021/08/12 05:45:25;;;;;;;19.58;9.60;;;;;;;20.60;73.07;95403.50;5100734;27;20524;-71
2021/08/12 05:47:52;;;;;;;19.77;10.55;;;;;;;20.64;72.95;95404.56;5095166;28;20513;-72
2021/08/12 05:50:19;;;;;;;21.30;9.95;;;;;;;20.71;72.77;95394.41;5096452;28;20122;-72
2021/08/12 05:52:46;;;;;;;15.60;10.20;;;;;;;20.85;71.93;95399.03;5095891;27;20047;-71
2021/08/12 05:55:15;;;;;;;17.30;9.93;;;;;;;20.96;71.23;95397.88;5095831;27;20121;-72
2021/08/12 05:57:42;;;;;;;19.05;10.05;;;;;;;21.06;70.25;95405.66;5111518;27;20130;-71
2021/08/12 06:00:15;;;;;;;31.60;11.25;;;;;;;21.11;70.42;95400.31;5100486;28;20052;-72
2021/08/12 06:02:42;;;;;;;30.42;11.68;;;;;;;21.18;70.55;95403.41;5114709;27;20043;-72
2021/08/12 06:05:11;;;;;;;47.58;13.13;;;;;;;21.33;69.49;95401.63;5095658;28;20074;-72
2021/08/12 06:07:38;;;;;;;31.65;11.10;;;;;;;21.38;69.42;95412.19;5100927;28;20069;-73
2021/08/12 06:10:06;;;;;;;26.75;9.93;;;;;;;21.45;69.05;95409.19;5097522;28;20074;-72
2021/08/12 06:12:33;;;;;;;24.00;10.02;;;;;;;21.56;70.16;95414.06;5095553;28;20082;-71
2021/08/12 06:15:03;;;;;;;17.48;9.52;;;;;;;21.72;68.12;95416.53;5100130;28;20126;-72
2021/08/12 06:17:35;;;;;;;18.48;9.88;;;;;;;21.82;67.63;95413.69;5101491;28;20131;-71
2021/08/12 06:20:03;;;;;;;22.98;9.70;;;;;;;21.96;67.48;95417.19;5098278;28;20131;-71
2021/08/12 06:22:31;;;;;;;22.55;9.90;;;;;;;22.11;67.46;95418.03;5098672;28;20504;-72
2021/08/12 06:24:57;;;;;;;21.80;9.80;;;;;;;22.20;67.11;95411.03;5098384;28;20531;-73
2021/08/12 06:27:25;;;;;;;12.98;9.70;;;;;;;22.31;66.92;95415.09;5099863;28;20043;-72
2021/08/12 06:29:55;;;;;;;20.80;9.77;;;;;;;22.40;66.18;95409.91;5102657;28;20054;-72
2021/08/12 06:32:22;;;;;;;17.77;8.77;;;;;;;22.53;67.50;95418.97;5117016;28;20115;-71
2021/08/12 06:34:49;;;;;;;14.73;9.27;;;;;;;22.66;66.55;95414.78;5099964;28;20622;-71
2021/08/12 06:37:16;;;;;;;18.00;9.77;;;;;;;22.71;64.78;95420.00;5098154;28;20055;-72
2021/08/12 06:39:43;;;;;;;24.38;9.32;;;;;;;22.79;64.98;95418.50;5098255;28;20039;-71
2021/08/12 06:46:16;;;;;;;19.05;10.15;;;;;;;22.83;63.43;95427.47;5131472;27;20120;-71
2021/08/12 06:48:43;;;;;;;31.05;10.40;;;;;;;22.85;64.01;95425.28;5120049;27;20429;-72
2021/08/12 06:51:30;;;;;;;28.05;11.40;;;;;;;22.98;64.72;95423.75;5117390;27;20047;-71
2021/08/12 06:53:57;;;;;;;18.00;9.30;;;;;;;22.97;64.50;95416.84;5113487;27;20047;-71
2021/08/12 06:56:24;;;;;;;21.38;10.38;;;;;;;23.20;62.98;95418.53;5118171;27;20035;-72
2021/08/12 06:58:51;;;;;;;24.40;9.82;;;;;;;23.35;63.69;95428.06;5110433;27;22223;-70
2021/08/12 07:01:18;;;;;;;21.63;9.50;;;;;;;23.54;63.72;95427.16;5108430;27;20580;-68
2021/08/12 07:03:45;;;;;;;20.80;9.35;;;;;;;23.68;62.73;95425.28;5107510;27;20116;-68
2021/08/12 07:06:13;;;;;;;12.30;8.20;;;;;;;23.72;64.31;95404.97;5105352;27;20093;-68
2021/08/12 07:08:43;;;;;;;18.17;11.40;;;;;;;24.01;62.18;95422.41;5111366;27;20036;-68
2021/08/12 07:11:10;;;;;;;13.95;9.43;;;;;;;24.13;61.51;95429.84;5108198;28;20523;-68
2021/08/12 07:13:42;;;;;;;16.00;9.68;;;;;;;24.23;61.58;95430.38;5107949;27;20071;-68
2021/08/12 07:16:14;;;;;;;16.70;9.40;;;;;;;24.29;60.21;95427.63;5106711;27;20043;-68
2021/08/12 07:18:42;;;;;;;16.85;9.23;;;;;;;24.38;61.52;95420.47;5106734;28;20043;-68
2021/08/12 07:21:18;;;;;;;20.67;9.10;;;;;;;24.51;59.93;95432.16;5107831;27;20050;-69
2021/08/12 07:23:47;;;;;;;13.15;8.88;;;;;;;24.63;59.78;95431.59;5107256;27;20134;-68
2021/08/12 07:26:17;;;;;;;15.25;10.27;;;;;;;24.74;60.22;95424.91;5109222;27;20123;-68
2021/08/12 07:28:46;;;;;;;25.05;9.00;;;;;;;24.91;60.33;95425.00;5107570;27;20048;-68
2021/08/12 07:31:14;;;;;;;17.95;8.77;;;;;;;25.06;59.14;95423.78;5106177;28;20067;-69
2021/08/12 07:33:42;;;;;;;18.42;9.77;;;;;;;25.16;59.39;95425.41;5126152;27;20043;-68
2021/08/12 07:36:09;;;;;;;15.85;9.52;;;;;;;25.37;58.02;95431.75;5124779;27;20043;-68
2021/08/12 07:38:37;;;;;;;18.38;9.77;;;;;;;25.51;58.68;95428.16;5095262;27;20047;-69
2021/08/12 07:41:04;;;;;;;26.60;9.50;;;;;;;25.63;56.43;95428.34;5107141;27;20073;-68
2021/08/12 07:43:31;;;;;;;18.48;8.32;;;;;;;25.68;56.55;95428.19;5104218;27;20054;-68
2021/08/12 07:45:58;;;;;;;20.77;8.65;;;;;;;25.86;56.28;95430.88;5121353;27;20043;-68
2021/08/12 07:48:25;;;;;;;20.88;8.82;;;;;;;25.85;56.36;95421.28;5106329;27;20047;-68
2021/08/12 07:50:52;;;;;;;14.45;9.20;;;;;;;25.97;55.14;95429.47;5123264;27;20046;-68
2021/08/12 07:53:19;;;;;;;14.02;8.73;;;;;;;26.12;55.39;95428.97;5125048;27;20066;-68
2021/08/12 07:55:45;;;;;;;15.70;7.75;;;;;;;26.23;54.03;95431.34;5121383;27;20424;-68
2021/08/12 07:58:12;;;;;;;16.23;8.85;;;;;;;26.30;53.61;95426.31;5111138;27;20036;-68
2021/08/12 08:00:39;;;;;;;13.20;9.07;;;;;;;26.41;54.00;95419.50;5112131;27;20051;-68
2021/08/12 08:03:06;;;;;;;10.27;8.25;;;;;;;26.56;53.05;95428.13;5110534;27;20090;-68
2021/08/12 08:05:33;;;;;;;13.48;8.48;;;;;;;26.74;53.85;95429.69;5112655;27;20064;-68
2021/08/12 08:08:03;;;;;;;14.00;8.90;;;;;;;26.94;52.32;95422.06;5109412;27;20101;-69
2021/08/12 08:10:29;;;;;;;12.25;7.65;;;;;;;27.10;51.00;95428.44;5111674;27;20553;-68
2021/08/12 08:12:56;;;;;;;10.80;8.38;;;;;;;27.19;51.44;95426.50;5112061;27;20066;-69
2021/08/12 08:15:24;;;;;;;12.13;7.75;;;;;;;27.33;51.49;95428.19;5109855;27;20038;-70
2021/08/12 08:18:01;;;;;;;13.82;7.68;;;;;;;27.54;50.51;95426.31;5107636;27;20420;-69
2021/08/12 08:20:28;;;;;;;12.57;7.82;;;;;;;27.72;48.91;95423.53;5111923;27;20043;-69
2021/08/12 08:23:04;;;;;;;26.60;9.20;;;;;;;28.04;50.04;95430.09;5111925;27;20097;-69
2021/08/12 08:25:31;;;;;;;18.20;8.57;;;;;;;28.28;49.03;95429.38;5109723;27;20122;-71
2021/08/12 08:27:59;;;;;;;12.25;8.32;;;;;;;28.47;47.51;95425.41;5111752;27;20058;-70
2021/08/12 08:30:29;;;;;;;20.20;8.30;;;;;;;28.41;47.62;95422.97;5107549;28;20044;-69
2021/08/12 08:32:56;;;;;;;13.88;7.85;;;;;;;28.46;47.30;95429.22;5111550;27;20447;-70
2021/08/12 08:35:25;;;;;;;11.73;8.02;;;;;;;28.47;47.74;95414.69;5110677;27;20122;-70
2021/08/12 08:37:56;;;;;;;15.77;8.50;;;;;;;28.48;47.30;95427.00;5113711;27;20042;-70
2021/08/12 08:40:24;;;;;;;21.17;8.82;;;;;;;28.55;47.82;95427.25;5113128;27;20043;-70
2021/08/12 08:42:51;;;;;;;14.50;7.97;;;;;;;28.47;48.93;95426.22;5103637;27;20051;-70
2021/08/12 08:45:25;;;;;;;14.10;8.57;;;;;;;28.49;48.49;95428.56;5104846;27;20055;-70
2021/08/12 08:47:54;;;;;;;11.52;7.93;;;;;;;28.50;49.99;95438.94;5106740;27;20755;-69
2021/08/12 08:50:25;;;;;;;16.92;8.25;;;;;;;28.58;49.43;95432.75;5107484;27;20038;-70
2021/08/12 08:52:53;;;;;;;12.50;7.75;;;;;;;28.62;47.55;95432.88;5110017;27;20135;-70
2021/08/12 08:55:23;;;;;;;13.48;8.18;;;;;;;28.74;47.02;95434.78;5107902;27;20048;-70
2021/08/12 08:57:56;;;;;;;14.88;8.25;;;;;;;28.86;46.58;95431.34;5108394;27;20052;-71
2021/08/12 09:00:25;;;;;;;11.48;9.57;;;;;;;28.78;46.63;95433.78;5108949;27;20043;-69
2021/08/12 09:02:54;;;;;;;15.80;8.40;;;;;;;28.75;48.31;95422.94;5091070;27;20043;-71
2021/08/12 09:08:22;;;;;;;17.83;8.43;;;;;;;28.64;47.93;95419.91;5116193;27;20131;-70
2021/08/12 09:10:50;;;;;;;11.63;8.23;;;;;;;28.61;47.67;95425.94;5125332;27;20044;-70
2021/08/12 09:13:16;;;;;;;19.55;7.35;;;;;;;28.56;49.69;95423.47;5124887;27;20047;-70
2021/08/12 09:15:44;;;;;;;15.93;8.55;;;;;;;28.55;48.70;95437.97;5123508;27;20442;-70
2021/08/12 09:18:20;;;;;;;13.55;8.60;;;;;;;28.41;49.76;95425.66;5124377;27;20050;-70
2021/08/12 09:20:49;;;;;;;17.33;8.27;;;;;;;28.40;49.54;95423.28;5122304;27;20039;-71
2021/08/12 09:23:24;;;;;;;18.70;8.82;;;;;;;28.37;48.68;95411.34;5128624;27;20047;-70
2021/08/12 09:25:54;;;;;;;10.30;8.07;;;;;;;28.53;49.23;95413.38;5122578;27;20040;-72
2021/08/12 09:28:24;;;;;;;10.88;7.50;;;;;;;28.77;49.60;95418.84;5126296;27;20043;-71
2021/08/12 09:31:02;;;;;;;12.52;7.75;;;;;;;28.86;48.29;95415.25;5122577;27;20043;-72
2021/08/12 09:33:39;;;;;;;10.95;7.93;;;;;;;29.05;47.32;95418.16;5121844;27;20054;-70
2021/08/12 09:36:24;;;;;;;12.43;7.70;;;;;;;29.08;47.45;95417.50;5123944;27;20060;-71
2021/08/12 09:39:18;;;;;;;11.98;8.40;;;;;;;29.08;47.93;95422.06;5124437;27;20039;-71
2021/08/12 09:41:51;;;;;;;9.57;7.38;;;;;;;29.00;48.40;95417.63;5125494;27;20047;-71
2021/08/12 09:44:32;;;;;;;15.32;8.65;;;;;;;29.07;47.99;95405.19;5123710;27;20039;-72
2021/08/12 09:47:27;;;;;;;15.25;8.27;;;;;;;29.34;49.05;95422.53;5127213;27;20035;-70
2021/08/12 09:49:56;;;;;;;14.05;7.55;;;;;;;29.33;49.09;95417.50;5121427;27;20052;-72
2021/08/12 09:52:35;;;;;;;16.83;7.68;;;;;;;29.26;49.33;95423.44;5126959;27;20521;-71
2021/08/12 09:55:10;;;;;;;25.73;15.90;;;;;;;29.20;53.57;95429.38;5108737;27;20035;-71
2021/08/12 09:57:47;;;;;;;41.80;21.65;;;;;;;29.19;59.13;95443.88;5124314;27;20040;-72
2021/08/12 10:00:45;;;;;;;19.13;11.85;;;;;;;29.01;58.98;95433.38;5122195;27;20092;-73
2021/08/12 10:03:32;;;;;;;14.98;10.70;;;;;;;28.87;60.66;95435.59;5097761;27;20138;-73
2021/08/12 10:06:02;;;;;;;44.65;12.82;;;;;;;28.71;63.58;95441.59;5106696;27;20123;-73
2021/08/12 10:08:34;;;;;;;45.30;12.57;;;;;;;28.40;66.80;95442.81;5122048;27;20027;-71
2021/08/12 10:11:20;;;;;;;26.77;12.37;;;;;;;27.92;65.45;95452.22;5121744;27;20479;-71
2021/08/12 10:13:50;;;;;;;25.42;11.48;;;;;;;27.67;67.88;95450.50;5103819;27;20528;-71
2021/08/12 10:16:18;;;;;;;22.50;12.50;;;;;;;27.24;68.95;95447.72;5125366;27;20052;-71
2021/08/12 10:18:46;;;;;;;27.13;12.55;;;;;;;26.82;70.35;95446.78;5119887;27;20043;-70
2021/08/12 10:21:16;;;;;;;35.60;13.25;;;;;;;25.79;70.86;95438.56;5113947;27;20089;-70
2021/08/12 10:23:46;;;;;;;17.02;7.97;;;;;;;24.80;63.46;95447.66;5117174;27;20039;-71
2021/08/12 10:26:13;;;;;;;18.00;9.25;;;;;;;24.77;65.73;95458.94;5115023;27;20051;-72
2021/08/12 10:28:43;;;;;;;13.77;8.40;;;;;;;24.70;66.68;95450.59;5114272;27;20040;-73
2021/08/12 10:31:16;;;;;;;22.23;9.27;;;;;;;24.48;66.68;95454.81;5120874;27;20047;-71
2021/08/12 10:33:43;;;;;;;19.90;9.88;;;;;;;24.30;69.66;95451.25;5110312;27;20059;-70
2021/08/12 10:36:10;;;;;;;17.35;10.02;;;;;;;23.85;71.60;95436.06;5108621;28;20409;-70
2021/08/12 10:38:39;;;;;;;14.52;7.93;;;;;;;23.44;68.97;95436.94;5106643;27;20046;-70
2021/08/12 10:41:06;;;;;;;22.13;12.65;;;;;;;23.06;71.28;95439.78;5107742;28;20043;-71
2021/08/12 10:43:35;;;;;;;22.20;11.88;;;;;;;23.11;73.66;95456.75;5108635;28;20043;-71
2021/08/12 10:46:03;;;;;;;14.52;9.10;;;;;;;23.00;71.49;95448.91;5108308;27;20100;-70
2021/08/12 10:48:32;;;;;;;10.02;7.78;;;;;;;23.29;61.45;95445.22;5107427;27;20039;-70
2021/08/12 10:51:12;;;;;;;11.68;7.53;;;;;;;23.52;62.17;95447.97;5108024;28;20402;-70
2021/08/12 10:53:44;;;;;;;11.32;7.57;;;;;;;23.59;62.14;95448.34;5107355;28;20035;-70
2021/08/12 10:56:16;;;;;;;10.60;7.72;;;;;;;23.63;62.84;95433.34;5110184;27;20059;-71
2021/08/12 10:58:47;;;;;;;10.45;8.45;;;;;;;23.62;64.37;95426.44;5109321;27;20032;-71
2021/08/12 11:01:29;;;;;;;13.23;8.95;;;;;;;23.76;73.18;95421.88;5111623;27;20484;-72
2021/08/12 11:04:01;;;;;;;16.65;11.30;;;;;;;24.33;81.87;95428.59;5117837;27;20039;-72
2021/08/12 11:06:42;;;;;;;14.88;9.20;;;;;;;24.80;81.15;95429.03;5097821;28;20130;-72
2021/08/12 11:09:12;;;;;;;15.07;9.15;;;;;;;25.08;79.12;95404.81;5092616;28;20122;-71
2021/08/12 11:11:38;;;;;;;11.18;8.70;;;;;;;26.02;81.69;95434.66;5107758;28;20065;-72
2021/08/12 11:14:10;;;;;;;14.55;7.78;;;;;;;27.06;75.91;95440.88;5106343;28;20052;-71
2021/08/12 11:16:42;;;;;;;14.57;7.88;;;;;;;27.49;68.06;95458.59;5106177;27;20039;-71
2021/08/12 11:19:33;;;;;;;13.43;9.00;;;;;;;27.23;70.35;95456.84;5104570;27;20071;-72
2021/08/12 11:21:59;;;;;;;15.25;7.97;;;;;;;27.32;70.42;95469.44;5106061;27;20031;-71
2021/08/12 11:24:26;;;;;;;11.85;8.40;;;;;;;27.93;66.10;95461.81;5105261;27;20630;-73
2021/08/12 11:26:56;;;;;;;12.45;7.85;;;;;;;28.59;66.15;95449.59;5106068;27;20416;-71
2021/08/12 11:29:25;;;;;;;18.50;7.85;;;;;;;29.14;56.71;95448.38;5106385;28;20062;-71
2021/08/12 11:31:54;;;;;;;11.93;6.63;;;;;;;29.42;54.28;95442.31;5088561;27;20044;-70
2021/08/12 11:34:30;;;;;;;8.88;6.40;;;;;;;28.87;50.34;95422.19;5106445;28;20044;-71
2021/08/12 11:37:06;;;;;;;9.95;6.32;;;;;;;28.64;52.04;95425.28;5105803;27;20401;-71
2021/08/12 11:40:01;;;;;;;13.50;6.57;;;;;;;28.20;54.96;95438.31;5105972;27;20039;-70
2021/08/12 11:42:37;;;;;;;12.95;6.32;;;;;;;27.70;61.23;95431.13;5106011;28;20038;-71